Time;durP1;ratioP1;P1;durP2;ratioP2;P2;SDS_P1;SDS_P2;PMS_P1;PMS_P2;Temp;Humidity;BMP_temperature;BMP_pressure;BME280_temperature;BME280_humidity;BME280_pressure;Samples;Min_cycle;Max_cycle;Signal;HPM_P1;HPM_P2
2022/08/28 00:01:32;;;;;;;35.40;7.28;;;;;;;22.57;61.68;100484.09;5047040;28;20052;-82
2022/08/28 00:03:58;;;;;;;40.08;7.90;;;;;;;22.55;62.16;100476.16;5051154;28;20060;-81
2022/08/28 00:06:24;;;;;;;26.15;7.05;;;;;;;22.41;62.12;100470.13;5054272;28;20104;-82
2022/08/28 00:08:50;;;;;;;32.92;7.57;;;;;;;22.55;62.01;100492.59;5052583;28;20049;-84
2022/08/28 00:11:15;;;;;;;29.90;7.57;;;;;;;22.47;61.81;100480.09;5019814;28;20041;-83
2022/08/28 00:13:41;;;;;;;30.58;7.90;;;;;;;22.55;61.47;100492.59;5035470;28;20052;-84
2022/08/28 00:16:06;;;;;;;23.35;7.13;;;;;;;22.53;61.07;100501.03;5036691;28;20108;-80
2022/08/28 00:18:32;;;;;;;31.80;7.60;;;;;;;22.43;60.83;100495.38;5057439;28;20056;-82
2022/08/28 00:20:59;;;;;;;26.95;7.25;;;;;;;22.36;59.48;100502.91;5039762;28;20068;-83
2022/08/28 00:23:25;;;;;;;33.20;7.63;;;;;;;22.24;59.59;100502.94;5049340;28;20047;-83
2022/08/28 00:25:51;;;;;;;34.33;7.18;;;;;;;22.18;59.72;100500.28;5052790;28;20041;-82
2022/08/28 00:28:16;;;;;;;24.85;7.00;;;;;;;22.23;59.45;100497.69;5053561;28;20041;-81
2022/08/28 00:30:47;;;;;;;32.85;6.82;;;;;;;22.14;59.33;100495.28;5034674;28;20040;-82
2022/08/28 00:33:19;;;;;;;27.92;6.70;;;;;;;22.08;59.91;100493.53;5052002;28;20045;-82
2022/08/28 00:35:45;;;;;;;32.03;6.93;;;;;;;22.18;59.94;100492.06;5050636;28;20622;-83
2022/08/28 00:38:11;;;;;;;32.38;6.78;;;;;;;22.02;59.50;100471.75;5051615;28;20041;-84
2022/08/28 00:40:37;;;;;;;36.40;7.32;;;;;;;22.10;58.59;100496.00;5034886;28;20127;-82
2022/08/28 00:43:03;;;;;;;34.97;6.95;;;;;;;22.03;58.54;100485.22;5050161;28;20052;-83
2022/08/28 00:45:30;;;;;;;39.22;7.15;;;;;;;22.03;58.42;100477.00;5049889;28;20064;-82
2022/08/28 00:47:55;;;;;;;33.42;6.32;;;;;;;22.01;58.84;100481.88;5018782;28;20095;-83
2022/08/28 00:50:22;;;;;;;31.90;6.63;;;;;;;22.04;59.13;100486.84;5050777;28;20048;-83
2022/08/28 00:52:50;;;;;;;32.92;6.50;;;;;;;21.99;59.06;100467.59;5050134;28;20037;-85
2022/08/28 00:55:18;;;;;;;28.33;6.38;;;;;;;22.02;59.24;100483.53;5032722;28;20045;-82
2022/08/28 00:57:49;;;;;;;28.23;6.97;;;;;;;21.92;59.49;100477.84;5052838;28;20044;-83
2022/08/28 01:00:19;;;;;;;27.15;6.63;;;;;;;21.86;59.52;100476.06;5019020;28;20589;-84
2022/08/28 01:02:44;;;;;;;32.95;7.55;;;;;;;21.97;58.90;100486.16;5034700;28;20140;-83
2022/08/28 01:05:10;;;;;;;38.40;6.75;;;;;;;21.96;58.59;100484.50;5033560;28;20535;-83
2022/08/28 01:07:36;;;;;;;25.15;7.03;;;;;;;21.90;58.52;100474.50;5047452;28;20120;-83
2022/08/28 01:10:03;;;;;;;29.75;6.55;;;;;;;21.96;58.59;100480.91;5049239;28;20076;-83
2022/08/28 01:12:29;;;;;;;37.75;7.15;;;;;;;21.98;58.54;100486.97;5035978;28;20048;-85
2022/08/28 01:14:58;;;;;;;32.38;6.78;;;;;;;21.97;58.10;100485.34;5049862;28;20045;-83
2022/08/28 01:17:24;;;;;;;32.05;6.32;;;;;;;21.90;58.18;100491.75;5024455;28;20051;-86
2022/08/28 01:19:55;;;;;;;28.83;6.47;;;;;;;21.87;58.18;100478.56;5017247;28;20087;-83
2022/08/28 01:22:50;;;;;;;30.00;6.95;;;;;;;21.87;58.26;100488.69;5034089;28;20041;-83
2022/08/28 01:25:17;;;;;;;32.83;6.28;;;;;;;21.93;58.04;100487.69;5003648;28;20056;-82
2022/08/28 01:27:43;;;;;;;30.48;6.28;;;;;;;22.02;57.69;100490.91;5023793;28;20045;-83
2022/08/28 01:30:10;;;;;;;32.17;5.93;;;;;;;22.04;57.19;100492.34;5033336;28;20029;-83
2022/08/28 01:32:39;;;;;;;27.02;5.68;;;;;;;22.08;57.20;100487.22;5021703;28;20041;-83
2022/08/28 01:35:08;;;;;;;34.00;6.03;;;;;;;22.09;57.10;100500.66;5049186;28;20485;-84
2022/08/28 01:37:34;;;;;;;30.20;5.82;;;;;;;22.10;56.77;100491.38;5025459;28;20041;-84
2022/08/28 01:40:00;;;;;;;34.80;6.38;;;;;;;22.09;56.37;100486.97;5046728;28;20374;-82
2022/08/28 01:42:25;;;;;;;29.42;6.07;;;;;;;22.10;56.35;100491.38;5048616;28;20032;-84
2022/08/28 01:44:52;;;;;;;30.35;6.60;;;;;;;22.07;56.00;100491.00;5051061;28;20029;-80
2022/08/28 01:47:20;;;;;;;30.63;6.30;;;;;;;22.01;56.07;100487.34;5048493;28;20052;-82
2022/08/28 01:49:45;;;;;;;29.02;6.55;;;;;;;21.99;56.11;100481.28;5043740;28;20075;-85
2022/08/28 01:52:11;;;;;;;32.58;5.65;;;;;;;21.96;56.04;100468.09;5048688;28;20416;-83
2022/08/28 01:54:36;;;;;;;27.48;5.43;;;;;;;22.03;55.89;100484.34;5015148;28;20048;-84
2022/08/28 01:57:02;;;;;;;29.00;5.20;;;;;;;21.84;55.83;100459.03;5031277;28;20041;-83
2022/08/28 01:59:28;;;;;;;36.60;6.95;;;;;;;22.07;55.50;100483.63;5023979;28;20113;-84
2022/08/28 02:01:55;;;;;;;25.65;5.93;;;;;;;22.05;55.74;100480.28;5017533;28;20045;-84
2022/08/28 02:04:20;;;;;;;27.65;6.45;;;;;;;22.05;56.06;100483.03;5048349;28;20033;-85
2022/08/28 02:06:46;;;;;;;34.67;6.95;;;;;;;22.07;56.14;100491.84;5040500;28;20041;-84
2022/08/28 02:09:12;;;;;;;34.47;6.53;;;;;;;21.97;56.34;100468.91;5032426;28;20055;-84
2022/08/28 02:11:38;;;;;;;35.67;6.35;;;;;;;22.00;56.69;100493.88;5025290;28;20053;-82
2022/08/28 02:14:05;;;;;;;28.42;5.95;;;;;;;21.95;56.81;100471.88;5032776;28;20106;-84
2022/08/28 02:16:31;;;;;;;31.15;6.68;;;;;;;22.04;56.68;100481.38;5022301;28;20123;-84
2022/08/28 02:18:56;;;;;;;31.70;6.40;;;;;;;21.97;56.86;100486.16;5035705;28;20090;-84
2022/08/28 02:21:22;;;;;;;32.13;5.95;;;;;;;21.99;57.20;100485.94;5038071;28;20037;-84
2022/08/28 02:23:47;;;;;;;35.88;5.90;;;;;;;22.02;56.84;100483.53;5051544;28;20041;-84
2022/08/28 02:26:13;;;;;;;31.60;6.22;;;;;;;22.05;56.90;100484.94;5042168;28;20063;-84
2022/08/28 02:28:41;;;;;;;43.03;6.90;;;;;;;22.07;56.92;100486.38;5049563;28;20488;-84
2022/08/28 02:31:09;;;;;;;31.10;6.28;;;;;;;21.97;56.68;100480.69;5037251;28;20040;-84
2022/08/28 02:33:39;;;;;;;26.52;6.28;;;;;;;21.97;56.95;100480.69;5039015;28;20143;-83
2022/08/28 02:36:06;;;;;;;32.78;6.75;;;;;;;22.06;56.92;100492.09;5044913;28;20548;-84
2022/08/28 02:38:33;;;;;;;27.77;6.40;;;;;;;22.00;57.03;100491.13;5044407;28;20040;-84
2022/08/28 02:40:58;;;;;;;41.35;7.68;;;;;;;21.86;57.64;100489.75;5045273;28;20029;-83
2022/08/28 02:43:24;;;;;;;35.15;8.18;;;;;;;21.82;58.28;100499.50;5041586;28;20456;-83
2022/08/28 02:45:49;;;;;;;35.97;8.68;;;;;;;21.74;58.70;100497.13;5025320;28;20114;-83
2022/08/28 02:48:15;;;;;;;50.67;10.27;;;;;;;21.64;59.49;100495.00;5045549;28;20043;-83
2022/08/28 02:50:40;;;;;;;50.00;10.60;;;;;;;21.74;60.01;100505.34;5048755;28;20496;-84
2022/08/28 02:53:05;;;;;;;52.58;12.82;;;;;;;21.57;60.61;100500.59;5042990;28;20037;-83
2022/08/28 02:55:32;;;;;;;51.53;13.55;;;;;;;21.56;60.99;100500.81;5013956;28;20574;-84
2022/08/28 02:57:58;;;;;;;51.05;13.63;;;;;;;21.39;61.30;100496.00;5026593;28;20475;-83
2022/08/28 03:00:24;;;;;;;47.13;13.90;;;;;;;21.35;61.71;100499.47;5013601;28;20404;-83
2022/08/28 03:02:49;;;;;;;58.85;15.13;;;;;;;21.27;62.63;100506.94;5016959;28;20037;-83
2022/08/28 03:05:19;;;;;;;68.55;19.00;;;;;;;21.18;62.98;100511.06;5029757;28;20060;-82
2022/08/28 03:07:44;;;;;;;77.88;23.55;;;;;;;21.24;62.49;100512.88;5014785;28;20045;-83
2022/08/28 03:10:10;;;;;;;84.60;25.48;;;;;;;20.99;62.84;100485.72;5006154;28;20467;-83
2022/08/28 03:12:35;;;;;;;73.20;24.98;;;;;;;21.02;63.34;100517.22;5012960;28;20204;-83
2022/08/28 03:15:01;;;;;;;83.30;25.15;;;;;;;20.92;63.41;100514.22;5017574;28;20045;-83
2022/08/28 03:17:26;;;;;;;66.57;23.25;;;;;;;20.99;63.13;100514.97;5011043;28;20508;-83
2022/08/28 03:19:52;;;;;;;80.22;21.35;;;;;;;20.96;63.25;100507.25;5039793;28;20045;-83
2022/08/28 03:23:25;;;;;;;62.55;20.85;;;;;;;21.02;62.64;100509.03;5043208;28;20072;-87
2022/08/28 03:25:04;;;;;;;69.65;17.40;;;;;;;21.18;62.34;100513.81;5035329;28;20061;-83
2022/08/28 03:27:30;;;;;;;50.15;15.93;;;;;;;21.14;62.63;100509.91;5039090;28;20049;-84
2022/08/28 03:29:55;;;;;;;46.40;16.25;;;;;;;21.24;61.86;100512.88;5032166;28;20044;-85
2022/08/28 03:32:21;;;;;;;53.85;15.13;;;;;;;21.08;61.90;100505.38;5034908;28;20764;-82
2022/08/28 03:34:46;;;;;;;58.30;15.90;;;;;;;21.10;62.33;100514.16;5033969;28;20037;-83
2022/08/28 03:37:12;;;;;;;48.95;14.98;;;;;;;21.10;62.25;100514.16;5031637;28;20040;-83
2022/08/28 03:39:38;;;;;;;47.17;14.65;;;;;;;21.15;62.30;100518.94;5051721;28;20051;-82
2022/08/28 03:42:03;;;;;;;55.72;15.23;;;;;;;21.20;62.36;100522.63;5031285;28;20033;-83
2022/08/28 03:44:29;;;;;;;48.15;15.73;;;;;;;21.22;62.41;100517.75;5029927;28;20135;-83
2022/08/28 03:46:54;;;;;;;56.85;15.57;;;;;;;21.27;62.23;100520.59;5051304;28;20103;-83
2022/08/28 03:49:19;;;;;;;56.45;14.93;;;;;;;21.19;62.48;100522.84;5046185;28;20049;-83
2022/08/28 03:51:45;;;;;;;53.20;14.65;;;;;;;21.28;62.05;100524.16;5031883;28;20056;-84
2022/08/28 03:54:10;;;;;;;57.90;14.70;;;;;;;21.21;62.24;100521.56;5022999;28;20091;-85
2022/08/28 03:56:36;;;;;;;57.30;14.35;;;;;;;21.36;61.96;100531.22;5023830;28;20044;-83
2022/08/28 03:59:02;;;;;;;57.75;13.25;;;;;;;21.35;61.95;100532.28;5039443;28;20048;-83
2022/08/28 04:01:27;;;;;;;45.47;13.82;;;;;;;21.24;61.83;100521.09;5035578;28;20075;-84
2022/08/28 04:03:53;;;;;;;48.83;12.98;;;;;;;21.30;61.54;100513.84;5038576;28;20041;-84
2022/08/28 04:06:18;;;;;;;48.35;12.52;;;;;;;21.39;61.53;100544.41;5057390;28;20040;-84
2022/08/28 04:08:44;;;;;;;50.97;12.13;;;;;;;21.31;61.25;100542.03;5022727;28;20071;-86
2022/08/28 04:11:09;;;;;;;42.83;11.48;;;;;;;21.18;61.48;100532.13;5036930;28;20044;-82
2022/08/28 04:13:35;;;;;;;43.65;10.80;;;;;;;21.28;61.21;100549.63;5014334;28;20107;-83
2022/08/28 04:16:09;;;;;;;40.88;12.05;;;;;;;21.35;61.03;100540.47;5020505;28;20087;-84
2022/08/28 04:18:36;;;;;;;42.22;11.82;;;;;;;21.39;60.50;100539.75;5042511;28;20044;-84
2022/08/28 04:21:31;;;;;;;44.65;12.95;;;;;;;21.49;60.50;100547.41;5037473;28;20151;-83
2022/08/28 04:23:56;;;;;;;44.20;13.30;;;;;;;21.38;60.91;100543.59;4992603;28;20049;-83
2022/08/28 04:26:23;;;;;;;42.97;14.13;;;;;;;21.48;60.77;100543.03;5057051;28;20115;-83
2022/08/28 04:28:49;;;;;;;43.58;14.88;;;;;;;21.57;60.31;100546.25;5046334;28;20049;-87
2022/08/28 04:31:15;;;;;;;51.17;16.02;;;;;;;21.38;60.63;100538.13;5065420;28;20037;-83
2022/08/28 04:33:41;;;;;;;50.53;15.57;;;;;;;21.37;60.68;100541.06;5023339;28;20124;-84
2022/08/28 04:36:09;;;;;;;55.95;16.60;;;;;;;21.42;60.54;100543.97;5028174;28;20194;-84
2022/08/28 04:38:36;;;;;;;48.10;15.90;;;;;;;21.28;60.61;100514.09;5005323;28;20048;-83
2022/08/28 04:41:06;;;;;;;52.22;16.02;;;;;;;21.50;60.36;100546.38;5045893;28;20041;-83
2022/08/28 04:43:32;;;;;;;64.32;16.27;;;;;;;21.65;60.40;100543.97;5031414;28;20037;-84
2022/08/28 04:46:03;;;;;;;60.72;20.33;;;;;;;21.81;59.36;100547.09;5033185;28;20041;-84
2022/08/28 04:48:28;;;;;;;68.45;30.65;;;;;;;21.88;59.24;100542.34;5021971;28;20112;-84
2022/08/28 04:50:55;;;;;;;115.30;41.60;;;;;;;21.91;59.61;100548.19;5027320;28;20131;-85
2022/08/28 04:53:20;;;;;;;123.00;52.22;;;;;;;22.03;59.28;100534.47;5049512;28;20195;-85
2022/08/28 04:55:48;;;;;;;178.25;71.30;;;;;;;22.04;59.20;100536.13;5043480;28;20516;-84
2022/08/28 04:58:13;;;;;;;196.05;83.63;;;;;;;22.10;59.25;100543.41;5013536;28;20037;-83
2022/08/28 05:00:44;;;;;;;198.13;85.30;;;;;;;22.21;59.25;100549.13;5022767;28;20032;-85
2022/08/28 05:03:12;;;;;;;196.15;84.55;;;;;;;22.34;58.92;100548.84;5036502;28;20092;-84
2022/08/28 05:05:42;;;;;;;181.55;81.57;;;;;;;22.46;58.27;100554.31;5025631;28;20075;-85
2022/08/28 05:08:11;;;;;;;188.38;77.82;;;;;;;22.69;57.55;100556.97;5048903;28;20033;-85
2022/08/28 05:10:39;;;;;;;180.02;80.30;;;;;;;22.79;56.73;100541.81;5057951;28;20029;-82
2022/08/28 05:13:04;;;;;;;176.15;79.32;;;;;;;23.03;56.29;100526.09;5031756;28;20064;-83
2022/08/28 05:15:30;;;;;;;163.85;72.75;;;;;;;23.37;54.97;100527.81;5038027;28;20032;-83
2022/08/28 05:17:55;;;;;;;167.40;71.55;;;;;;;23.84;54.04;100548.59;5028270;28;20134;-85
2022/08/28 05:20:21;;;;;;;150.25;59.15;;;;;;;24.05;52.99;100541.50;5012806;28;20033;-84
2022/08/28 05:22:46;;;;;;;149.80;57.05;;;;;;;24.42;52.57;100546.38;5037281;28;20475;-84
2022/08/28 05:25:13;;;;;;;138.48;51.72;;;;;;;24.74;51.14;100542.91;5045524;28;20075;-84
2022/08/28 05:27:39;;;;;;;136.48;51.75;;;;;;;24.94;50.75;100540.41;5006124;28;20034;-82
2022/08/28 05:30:05;;;;;;;108.30;44.95;;;;;;;25.34;49.94;100550.16;5024591;28;20094;-85
2022/08/28 05:32:31;;;;;;;92.97;38.75;;;;;;;25.61;49.16;100552.00;5016140;28;20489;-85
2022/08/28 05:34:56;;;;;;;91.15;36.13;;;;;;;25.85;48.31;100556.06;5046889;28;20040;-84
2022/08/28 05:37:23;;;;;;;92.43;34.92;;;;;;;26.03;47.60;100562.25;5030024;28;20053;-84
2022/08/28 05:39:49;;;;;;;73.00;30.75;;;;;;;26.32;46.73;100559.94;5050571;28;20075;-84
2022/08/28 05:42:14;;;;;;;64.20;27.20;;;;;;;26.63;46.23;100560.91;5008258;28;20049;-86
2022/08/28 05:44:39;;;;;;;69.47;27.00;;;;;;;26.68;45.45;100536.09;5008419;28;20052;-83
2022/08/28 05:47:05;;;;;;;74.47;25.40;;;;;;;27.04;44.50;100565.69;5042454;28;20049;-85
2022/08/28 05:49:33;;;;;;;69.35;25.30;;;;;;;27.36;44.34;100563.56;5046833;28;20056;-84
2022/08/28 05:51:59;;;;;;;70.70;28.00;;;;;;;27.55;43.44;100558.31;5040926;28;20045;-84
2022/08/28 05:54:24;;;;;;;78.03;27.40;;;;;;;27.74;43.29;100557.75;5031606;28;20045;-84
2022/08/28 05:56:49;;;;;;;66.85;24.10;;;;;;;28.05;42.60;100555.81;5040312;28;20138;-84
2022/08/28 05:59:15;;;;;;;82.40;25.35;;;;;;;28.42;41.83;100569.25;5027548;28;20433;-84
2022/08/28 06:01:46;;;;;;;72.90;24.67;;;;;;;28.64;41.18;100559.78;5025103;28;20132;-83
2022/08/28 06:04:16;;;;;;;81.05;25.02;;;;;;;28.73;40.57;100554.44;5045391;28;20037;-84
2022/08/28 06:06:42;;;;;;;67.50;23.90;;;;;;;28.96;40.58;100548.25;5027512;28;20041;-85
2022/08/28 06:09:09;;;;;;;70.70;23.30;;;;;;;29.12;40.24;100551.75;5006003;28;20044;-84
2022/08/28 06:11:37;;;;;;;59.35;20.63;;;;;;;29.28;39.83;100546.13;5041595;28;20048;-84
2022/08/28 06:14:08;;;;;;;56.63;20.95;;;;;;;29.48;39.04;100545.94;5035459;28;20136;-84
2022/08/28 06:16:34;;;;;;;57.60;19.60;;;;;;;29.89;38.93;100556.66;5029897;28;20048;-85
2022/08/28 06:19:02;;;;;;;67.28;22.05;;;;;;;30.12;38.42;100559.75;5043272;28;20037;-83
2022/08/28 06:21:29;;;;;;;55.35;19.45;;;;;;;30.24;37.93;100560.97;5025569;28;20073;-84
2022/08/28 06:23:56;;;;;;;59.30;19.30;;;;;;;30.52;37.48;100563.19;5051454;28;20119;-85
2022/08/28 06:26:23;;;;;;;53.88;17.63;;;;;;;30.78;36.66;100558.94;5043163;28;20757;-84
2022/08/28 06:28:52;;;;;;;52.50;18.35;;;;;;;31.06;36.03;100562.72;5033941;28;20033;-85
2022/08/28 06:31:18;;;;;;;56.47;18.38;;;;;;;31.05;36.61;100563.06;5046654;28;20131;-87
2022/08/28 06:33:46;;;;;;;62.40;18.42;;;;;;;31.23;35.78;100544.72;5048343;28;20559;-85
2022/08/28 06:36:13;;;;;;;57.25;17.15;;;;;;;31.52;35.20;100552.88;5046025;28;20044;-85
2022/08/28 06:38:45;;;;;;;57.13;17.20;;;;;;;31.93;34.75;100563.25;5042274;28;20123;-88
2022/08/28 06:41:14;;;;;;;51.40;16.95;;;;;;;31.92;34.28;100559.66;5048636;28;20044;-85
2022/08/28 06:43:40;;;;;;;57.17;16.98;;;;;;;32.16;33.58;100562.25;5020426;28;20110;-83
2022/08/28 06:46:05;;;;;;;62.22;16.63;;;;;;;32.46;33.98;100562.78;5043145;28;20425;-83
2022/08/28 06:48:31;;;;;;;49.10;14.50;;;;;;;32.91;33.48;100562.13;5041273;28;20039;-83
2022/08/28 06:50:56;;;;;;;57.92;16.13;;;;;;;33.05;32.27;100553.75;5009977;28;20504;-87
2022/08/28 06:53:27;;;;;;;43.50;15.93;;;;;;;33.20;32.25;100567.28;5030998;28;20037;-82
2022/08/28 06:56:00;;;;;;;52.05;15.15;;;;;;;33.43;31.75;100562.56;5046506;28;20432;-84
2022/08/28 06:58:26;;;;;;;59.15;15.40;;;;;;;33.37;32.08;100558.28;5027508;28;20068;-82
2022/08/28 07:01:07;;;;;;;64.80;20.77;;;;;;;33.34;33.06;100553.31;5023296;28;20043;-82
2022/08/28 07:03:34;;;;;;;59.80;20.60;;;;;;;33.49;32.54;100560.47;5012288;28;20136;-81
2022/08/28 07:06:00;;;;;;;52.90;21.05;;;;;;;33.35;32.55;100555.78;4995557;28;20484;-82
2022/08/28 07:08:30;;;;;;;65.55;21.35;;;;;;;33.41;32.79;100545.31;5046997;28;20100;-84
2022/08/28 07:10:57;;;;;;;66.35;21.42;;;;;;;33.39;32.02;100553.22;5013972;28;20428;-84
2022/08/28 07:13:24;;;;;;;62.90;20.58;;;;;;;33.32;31.96;100544.44;5019330;28;20049;-83
2022/08/28 07:15:50;;;;;;;61.03;21.30;;;;;;;33.53;31.84;100558.69;5049469;28;20045;-82
2022/08/28 07:18:17;;;;;;;53.63;17.88;;;;;;;33.42;32.33;100556.16;5047185;28;20194;-82
2022/08/28 07:20:46;;;;;;;55.15;16.58;;;;;;;33.62;32.23;100562.38;5030816;28;20068;-83
2022/08/28 07:23:11;;;;;;;54.38;15.25;;;;;;;33.99;31.30;100561.09;5018801;28;20120;-83
2022/08/28 07:25:40;;;;;;;54.10;14.18;;;;;;;34.18;31.91;100558.09;5029590;28;20048;-83
2022/08/28 07:28:06;;;;;;;44.78;12.40;;;;;;;34.56;30.15;100565.09;5040561;28;20030;-84
2022/08/28 07:30:33;;;;;;;50.33;11.48;;;;;;;34.86;29.48;100566.16;5025022;28;20511;-85
2022/08/28 07:32:58;;;;;;;41.00;12.85;;;;;;;35.17;30.22;100559.63;5013655;28;20489;-85
2022/08/28 07:35:24;;;;;;;52.13;12.85;;;;;;;35.05;30.07;100552.72;5029787;28;20171;-85
2022/08/28 07:37:50;;;;;;;43.53;12.57;;;;;;;35.13;29.81;100555.88;5024952;28;20041;-88
2022/08/28 07:40:18;;;;;;;45.85;11.00;;;;;;;35.55;29.88;100567.34;5023022;28;20072;-83
2022/08/28 07:45:30;;;;;;;41.85;8.75;;;;;;;35.71;28.76;100571.28;5032129;28;20103;-83
2022/08/28 07:47:57;;;;;;;33.65;6.90;;;;;;;36.04;26.30;100565.06;5048835;28;20102;-85
2022/08/28 07:50:25;;;;;;;26.55;6.25;;;;;;;36.46;25.44;100566.03;5033315;28;20052;-84
2022/08/28 07:52:51;;;;;;;30.52;6.45;;;;;;;37.01;24.70;100564.19;5013705;28;20092;-83
2022/08/28 07:55:17;;;;;;;40.28;6.88;;;;;;;37.13;24.90;100569.88;5048207;28;20044;-83
2022/08/28 07:57:43;;;;;;;34.70;6.75;;;;;;;37.11;24.69;100551.78;5014422;28;20079;-86
2022/08/28 08:00:12;;;;;;;31.42;6.20;;;;;;;37.78;23.95;100558.22;5028619;28;20040;-88
2022/08/28 08:02:37;;;;;;;39.13;7.88;;;;;;;37.44;25.78;100565.00;5012441;28;20519;-85
2022/08/28 08:05:04;;;;;;;38.88;7.65;;;;;;;36.73;26.93;100564.72;5028734;28;20124;-82
2022/08/28 08:07:33;;;;;;;42.17;8.02;;;;;;;37.20;26.61;100572.13;5029883;28;20029;-84
2022/08/28 08:09:58;;;;;;;41.95;8.68;;;;;;;37.28;27.15;100567.63;5047692;28;20040;-82
2022/08/28 08:12:26;;;;;;;54.47;9.23;;;;;;;36.79;28.46;100567.34;5013521;28;20049;-82
2022/08/28 08:14:55;;;;;;;46.53;7.85;;;;;;;36.68;29.25;100578.94;5013866;28;20071;-83
2022/08/28 08:17:21;;;;;;;42.28;8.57;;;;;;;37.27;29.44;100580.81;4996054;28;20052;-87
2022/08/28 08:19:48;;;;;;;37.90;8.75;;;;;;;37.80;28.51;100578.34;5046107;28;20396;-83
2022/08/28 08:22:15;;;;;;;47.58;8.68;;;;;;;37.63;29.38;100567.28;5029914;28;20440;-82
2022/08/28 08:24:43;;;;;;;35.70;7.57;;;;;;;38.12;28.03;100570.22;5046330;28;20056;-86
2022/08/28 08:27:09;;;;;;;42.03;7.38;;;;;;;38.20;28.15;100563.69;5016713;28;20427;-86
2022/08/28 08:29:36;;;;;;;37.42;7.65;;;;;;;38.88;27.41;100568.66;5051203;28;20036;-83
2022/08/28 08:32:05;;;;;;;42.28;7.75;;;;;;;38.74;28.18;100571.84;5047666;28;20120;-85
2022/08/28 08:34:38;;;;;;;41.40;7.72;;;;;;;39.41;26.74;100568.66;5050383;28;20126;-85
2022/08/28 08:37:04;;;;;;;38.10;7.60;;;;;;;39.50;26.83;100569.31;5051348;28;20047;-86
2022/08/28 08:39:31;;;;;;;33.45;6.70;;;;;;;40.24;26.29;100563.19;5033158;28;20033;-84
2022/08/28 08:41:57;;;;;;;38.63;7.65;;;;;;;40.76;24.96;100578.94;5022199;28;20068;-85
2022/08/28 08:44:31;;;;;;;39.17;7.72;;;;;;;41.42;24.50;100570.66;5030154;28;20086;-85
2022/08/28 08:47:18;;;;;;;41.45;8.02;;;;;;;40.32;26.24;100572.66;5018101;28;20041;-86
2022/08/28 08:49:48;;;;;;;36.58;8.13;;;;;;;40.77;25.09;100560.06;5031545;28;20069;-84
2022/08/28 08:52:23;;;;;;;38.17;7.53;;;;;;;40.03;26.50;100583.19;5012726;28;20045;-85
2022/08/28 08:55:18;;;;;;;40.15;8.20;;;;;;;40.18;26.41;100561.81;5048346;28;20124;-86
2022/08/28 08:57:44;;;;;;;33.70;7.45;;;;;;;40.82;26.30;100571.84;5031270;28;20100;-84
2022/08/28 09:00:19;;;;;;;33.67;7.70;;;;;;;41.74;24.42;100566.47;5017742;28;20124;-86
2022/08/28 09:03:12;;;;;;;42.83;7.72;;;;;;;42.05;24.47;100570.25;5031299;28;20043;-87
2022/08/28 09:05:49;;;;;;;39.72;7.18;;;;;;;42.38;23.75;100551.84;5033344;28;20044;-86
2022/08/28 09:08:40;;;;;;;29.77;6.60;;;;;;;43.89;22.35;100562.22;5016786;28;20037;-88
2022/08/28 09:11:15;;;;;;;36.72;7.20;;;;;;;44.01;21.85;100565.59;5038994;28;20048;-87
2022/08/28 09:13:58;;;;;;;32.05;7.20;;;;;;;45.02;19.79;100550.03;5046224;28;20140;-88
2022/08/28 09:16:32;;;;;;;46.92;6.97;;;;;;;45.72;19.16;100569.72;5038370;28;20036;-89
2022/08/28 09:18:59;;;;;;;43.20;7.30;;;;;;;46.01;18.94;100556.41;5016792;28;20057;-87
2022/08/28 09:21:30;;;;;;;32.20;6.80;;;;;;;46.37;18.55;100547.03;5017431;28;22927;-88
2022/08/28 09:24:04;;;;;;;35.65;7.13;;;;;;;47.65;17.32;100556.25;5034753;28;20044;-87
2022/08/28 09:26:31;;;;;;;38.00;6.82;;;;;;;48.57;16.18;100550.97;5052309;28;20143;-87
2022/08/28 09:29:16;;;;;;;40.58;6.72;;;;;;;47.56;15.32;100542.50;5023188;28;20105;-86
2022/08/28 09:31:44;;;;;;;35.13;7.00;;;;;;;46.39;17.05;100555.97;5034081;28;20492;-85
2022/08/28 09:34:29;;;;;;;32.42;6.60;;;;;;;45.56;17.80;100566.44;5030456;28;20041;-87
2022/08/28 09:37:00;;;;;;;38.83;6.55;;;;;;;44.75;18.54;100555.19;5045907;28;20131;-87
2022/08/28 09:39:30;;;;;;;32.13;7.60;;;;;;;46.24;17.32;100557.97;5033781;28;20071;-88
2022/08/28 09:45:24;;;;;;;39.00;6.25;;;;;;;44.58;18.06;100562.38;5053555;28;20135;-85
2022/08/28 09:47:58;;;;;;;35.85;5.97;;;;;;;46.27;16.54;100555.16;5020484;28;20460;-87
2022/08/28 09:50:38;;;;;;;41.78;7.10;;;;;;;45.71;16.41;100553.94;5036076;28;20064;-86
2022/08/28 09:53:10;;;;;;;32.13;7.00;;;;;;;47.12;16.23;100556.16;5063219;28;20040;-82
2022/08/28 09:56:01;;;;;;;35.83;7.43;;;;;;;46.09;17.75;100565.72;5050044;28;20025;-88
2022/08/28 09:58:55;;;;;;;31.00;7.00;;;;;;;47.39;16.95;100558.44;5046323;28;20045;-87
2022/08/28 10:01:38;;;;;;;34.13;7.40;;;;;;;45.67;18.42;100564.47;5039498;28;20071;-86
2022/08/28 10:04:31;;;;;;;32.05;7.95;;;;;;;47.76;17.51;100565.53;5050529;28;20154;-84
2022/08/28 10:07:14;;;;;;;45.10;8.82;;;;;;;45.64;20.08;100556.75;5045244;28;20041;-85
2022/08/28 10:09:53;;;;;;;32.88;9.13;;;;;;;46.14;20.35;100553.13;5045605;28;20037;-85
2022/08/28 10:12:59;;;;;;;43.20;9.23;;;;;;;46.10;19.66;100556.78;5050228;28;20045;-85
2022/08/28 10:15:42;;;;;;;33.42;8.20;;;;;;;45.72;19.89;100558.38;5046747;28;20045;-85
2022/08/28 10:18:23;;;;;;;32.22;7.30;;;;;;;45.00;20.19;100560.97;5045477;28;20073;-82
2022/08/28 10:20:52;;;;;;;48.20;7.53;;;;;;;45.34;20.52;100554.25;5049657;28;20037;-83
2022/08/28 10:23:40;;;;;;;35.22;6.38;;;;;;;45.14;20.51;100553.72;5038300;28;20505;-88
2022/08/28 10:26:30;;;;;;;35.30;7.13;;;;;;;44.72;21.81;100540.97;5027470;28;20037;-85
2022/08/28 10:29:32;;;;;;;35.60;6.40;;;;;;;45.05;21.05;100557.78;5043891;28;20037;-81
2022/08/28 10:32:14;;;;;;;29.73;6.50;;;;;;;45.67;20.59;100550.25;5043483;28;20037;-84
2022/08/28 10:34:58;;;;;;;33.40;6.95;;;;;;;45.23;20.47;100554.19;5049528;28;20140;-84
2022/08/28 10:37:42;;;;;;;31.05;6.40;;;;;;;46.61;18.97;100540.47;5042008;28;20084;-89
2022/08/28 10:40:17;;;;;;;34.42;6.13;;;;;;;45.70;19.66;100541.72;5032685;28;20428;-85
2022/08/28 10:42:54;;;;;;;40.40;5.95;;;;;;;46.55;18.55;100536.44;5043224;28;20041;-86
2022/08/28 10:45:22;;;;;;;30.25;6.22;;;;;;;45.27;19.45;100527.47;5000909;28;20056;-85
2022/08/28 10:47:59;;;;;;;31.23;5.68;;;;;;;45.48;19.97;100540.06;5023082;28;20072;-87
2022/08/28 10:50:41;;;;;;;33.67;5.72;;;;;;;46.23;19.29;100537.28;5003062;28;20135;-85
2022/08/28 10:53:10;;;;;;;37.20;5.85;;;;;;;47.00;18.37;100531.00;5027142;28;20037;-87
2022/08/28 10:56:06;;;;;;;32.60;5.75;;;;;;;47.14;17.66;100527.28;5027764;28;20052;-88
2022/08/28 10:58:31;;;;;;;27.15;5.82;;;;;;;45.35;18.91;100539.63;5031111;28;20071;-85
2022/08/28 11:01:03;;;;;;;30.92;5.65;;;;;;;44.30;20.51;100536.66;5024655;28;20449;-85
2022/08/28 11:03:32;;;;;;;40.90;6.32;;;;;;;43.78;20.15;100534.59;5017875;28;20061;-86
2022/08/28 11:06:00;;;;;;;27.42;6.03;;;;;;;43.23;21.39;100525.16;5028461;28;20036;-87
2022/08/28 11:08:32;;;;;;;26.55;5.80;;;;;;;44.12;20.56;100534.53;5021781;28;20132;-87
2022/08/28 11:10:59;;;;;;;33.33;6.00;;;;;;;42.46;23.01;100533.81;5027010;28;20041;-86
2022/08/28 11:13:45;;;;;;;28.92;5.50;;;;;;;42.37;22.05;100533.25;5016682;28;20051;-85
2022/08/28 11:16:22;;;;;;;31.58;6.03;;;;;;;42.58;21.00;100535.59;5047542;28;20041;-85
2022/08/28 11:19:18;;;;;;;28.75;6.00;;;;;;;41.10;24.93;100539.81;5015768;28;20425;-86
2022/08/28 11:21:47;;;;;;;36.83;6.47;;;;;;;41.34;26.07;100552.78;5037326;28;20037;-84
2022/08/28 11:24:22;;;;;;;32.30;5.50;;;;;;;40.52;26.67;100540.53;5025128;28;20052;-85
2022/08/28 11:27:15;;;;;;;32.83;6.03;;;;;;;40.00;27.82;100542.50;5040232;28;20059;-82
2022/08/28 11:30:13;;;;;;;39.38;6.97;;;;;;;39.23;29.71;100532.38;5034451;28;20135;-87
2022/08/28 11:32:58;;;;;;;28.00;6.03;;;;;;;39.36;29.99;100527.56;5041782;28;20044;-90